Time;durP1;ratioP1;P1;durP2;ratioP2;P2;SDS_P1;SDS_P2;PMS_P1;PMS_P2;Temp;Humidity;BMP_temperature;BMP_pressure;BME280_temperature;BME280_humidity;BME280_pressure;Samples;Min_cycle;Max_cycle;Signal;HPM_P1;HPM_P2
2023/07/27 00:00:57;;;;;;;;;;;;;;;15.24;92.94;100886.88;10336132;28;19932;-64
2023/07/27 00:05:59;;;;;;;;;;;;;;;15.05;99.11;100876.88;10335864;28;19925;-64
2023/07/27 00:11:01;;;;;;;;;;;;;;;15.18;97.17;100879.41;10335769;28;20008;-64
2023/07/27 00:16:03;;;;;;;;;;;;;;;15.31;98.65;100880.16;10335476;28;19932;-64
2023/07/27 00:21:06;;;;;;;;;;;;;;;15.18;95.78;100876.78;10335184;28;19948;-64
2023/07/27 00:26:08;;;;;;;;;;;;;;;15.11;98.03;100875.56;10334875;28;20452;-64
2023/07/27 00:31:10;;;;;;;;;;;;;;;15.17;98.52;100870.66;10334795;28;19926;-64
2023/07/27 00:36:12;;;;;;;;;;;;;;;15.36;100.00;100862.19;10334629;28;19996;-64
2023/07/27 00:41:15;;;;;;;;;;;;;;;15.33;100.00;100870.34;10334597;28;20016;-63
2023/07/27 00:46:17;;;;;;;;;;;;;;;15.54;100.00;100873.13;10334727;28;19926;-64
2023/07/27 00:51:19;;;;;;;;;;;;;;;16.01;93.62;100857.22;10334326;28;20367;-64
2023/07/27 00:56:21;;;;;;;;;;;;;;;16.09;90.97;100861.88;10333079;28;20492;-63
2023/07/27 01:01:24;;;;;;;;;;;;;;;16.10;91.78;100855.63;10332959;28;19926;-63
2023/07/27 01:06:26;;;;;;;;;;;;;;;16.03;94.26;100860.56;10334097;28;20413;-63
2023/07/27 01:11:28;;;;;;;;;;;;;;;16.05;93.92;100852.50;10334068;28;19930;-64
2023/07/27 01:16:35;;;;;;;;;;;;;;;15.97;96.67;100843.41;10333806;28;19926;-64
2023/07/27 01:21:40;;;;;;;;;;;;;;;15.88;100.00;100840.66;10334074;28;19932;-64
2023/07/27 01:27:02;;;;;;;;;;;;;;;15.62;100.00;100835.59;10332496;28;19926;-64
2023/07/27 01:32:04;;;;;;;;;;;;;;;15.61;100.00;100836.53;10333914;28;19969;-63
2023/07/27 01:37:08;;;;;;;;;;;;;;;15.90;100.00;100822.88;10332441;28;19968;-64
2023/07/27 01:42:11;;;;;;;;;;;;;;;15.75;100.00;100809.06;10348618;28;20013;-64
2023/07/27 01:47:13;;;;;;;;;;;;;;;15.88;100.00;100803.69;10338963;28;19926;-64
2023/07/27 01:52:15;;;;;;;;;;;;;;;15.76;100.00;100792.31;10339779;28;19972;-64
2023/07/27 01:57:17;;;;;;;;;;;;;;;15.53;100.00;100784.38;10339832;28;19925;-64
2023/07/27 02:02:20;;;;;;;;;;;;;;;15.61;100.00;100779.31;10339412;28;19926;-64
2023/07/27 02:07:22;;;;;;;;;;;;;;;15.58;100.00;100781.38;10340265;28;20293;-64
2023/07/27 02:12:25;;;;;;;;;;;;;;;15.42;100.00;100784.38;10340330;28;20012;-64
2023/07/27 02:17:37;;;;;;;;;;;;;;;15.32;100.00;100775.50;10338879;28;19926;-64
2023/07/27 02:22:40;;;;;;;;;;;;;;;15.28;100.00;100774.91;10339778;28;20297;-64
2023/07/27 02:27:44;;;;;;;;;;;;;;;15.20;100.00;100767.59;10338431;28;20002;-64
2023/07/27 02:32:46;;;;;;;;;;;;;;;15.27;100.00;100753.94;10338519;28;19926;-64
2023/07/27 02:37:49;;;;;;;;;;;;;;;15.31;100.00;100752.72;10339376;28;19930;-64
2023/07/27 02:42:51;;;;;;;;;;;;;;;15.20;100.00;100756.19;10400573;22;19931;-68
2023/07/27 02:47:53;;;;;;;;;;;;;;;15.18;100.00;100747.53;10461560;28;19931;-68
2023/07/27 02:52:56;;;;;;;;;;;;;;;15.23;100.00;100742.75;10461322;28;19978;-68
2023/07/27 02:57:58;;;;;;;;;;;;;;;15.13;100.00;100724.19;10461364;28;19931;-68
2023/07/27 03:03:00;;;;;;;;;;;;;;;15.13;100.00;100718.91;10461096;28;19935;-68
2023/07/27 03:08:03;;;;;;;;;;;;;;;15.17;100.00;100716.88;10460822;28;19947;-68
2023/07/27 03:13:05;;;;;;;;;;;;;;;15.09;100.00;100704.28;10460482;28;20298;-67
2023/07/27 03:18:07;;;;;;;;;;;;;;;15.26;100.00;100684.50;10460438;28;19925;-67
2023/07/27 03:23:09;;;;;;;;;;;;;;;14.83;100.00;100701.03;10459076;28;20454;-68
2023/07/27 03:28:12;;;;;;;;;;;;;;;15.13;100.00;100674.09;10458812;28;19963;-68
2023/07/27 03:33:14;;;;;;;;;;;;;;;14.94;100.00;100672.03;10459719;28;20363;-68
2023/07/27 03:38:16;;;;;;;;;;;;;;;14.90;100.00;100659.25;10458560;28;19925;-67
2023/07/27 03:43:18;;;;;;;;;;;;;;;14.90;100.00;100652.16;10459089;28;19931;-68
2023/07/27 03:48:21;;;;;;;;;;;;;;;14.89;100.00;100639.94;10459644;28;19925;-68
2023/07/27 03:53:23;;;;;;;;;;;;;;;14.83;100.00;100635.16;10458968;28;19932;-68
2023/07/27 03:58:25;;;;;;;;;;;;;;;14.82;100.00;100630.81;10457805;28;19925;-68
2023/07/27 04:03:27;;;;;;;;;;;;;;;14.98;100.00;100625.22;10458657;28;19932;-68
2023/07/27 04:08:30;;;;;;;;;;;;;;;14.91;100.00;100600.28;10457826;28;19976;-68
2023/07/27 04:13:32;;;;;;;;;;;;;;;15.00;100.00;100589.00;10457243;28;19925;-68
2023/07/27 04:18:34;;;;;;;;;;;;;;;15.02;100.00;100587.91;10457929;28;20394;-68
2023/07/27 04:23:36;;;;;;;;;;;;;;;14.85;100.00;100572.59;10456650;28;19933;-68
2023/07/27 04:28:39;;;;;;;;;;;;;;;14.99;100.00;100567.06;10457647;28;19925;-68
2023/07/27 04:33:41;;;;;;;;;;;;;;;15.03;100.00;100563.25;10457735;28;19925;-68
2023/07/27 04:38:43;;;;;;;;;;;;;;;15.04;100.00;100551.72;10457535;28;19931;-68
2023/07/27 04:43:45;;;;;;;;;;;;;;;14.86;100.00;100546.13;10457102;28;20051;-68
2023/07/27 04:48:48;;;;;;;;;;;;;;;14.93;100.00;100532.44;10457093;28;20390;-68
2023/07/27 04:53:50;;;;;;;;;;;;;;;15.00;100.00;100537.13;10457067;28;19933;-68
2023/07/27 04:58:52;;;;;;;;;;;;;;;14.85;100.00;100514.63;10472348;28;20367;-68
2023/07/27 05:03:54;;;;;;;;;;;;;;;14.62;100.00;100519.91;10456836;28;19999;-67
2023/07/27 05:08:57;;;;;;;;;;;;;;;14.80;100.00;100501.81;10456598;28;20283;-67
2023/07/27 05:13:59;;;;;;;;;;;;;;;14.86;100.00;100500.47;10456782;28;19925;-68
2023/07/27 05:19:01;;;;;;;;;;;;;;;14.96;100.00;100490.03;10457007;28;19931;-68
2023/07/27 05:24:03;;;;;;;;;;;;;;;14.86;100.00;100488.16;10464869;28;20287;-68
2023/07/27 05:29:06;;;;;;;;;;;;;;;15.10;100.00;100478.38;10464539;28;20114;-68
2023/07/27 05:34:08;;;;;;;;;;;;;;;15.07;100.00;100479.47;10464557;28;19925;-67
2023/07/27 05:39:11;;;;;;;;;;;;;;;15.32;100.00;100461.63;10464491;28;19924;-68
2023/07/27 05:44:13;;;;;;;;;;;;;;;15.23;100.00;100450.00;10463886;28;20261;-66
2023/07/27 05:49:15;;;;;;;;;;;;;;;15.10;100.00;100452.84;10464112;28;19932;-67
2023/07/27 05:54:18;;;;;;;;;;;;;;;15.45;100.00;100446.47;10463769;28;20039;-68
2023/07/27 05:59:20;;;;;;;;;;;;;;;15.28;100.00;100441.72;10462346;28;20372;-67
2023/07/27 06:04:23;;;;;;;;;;;;;;;15.54;100.00;100436.94;10463427;28;19925;-68
2023/07/27 06:09:25;;;;;;;;;;;;;;;15.61;100.00;100435.44;10463026;28;19932;-68
2023/07/27 06:14:28;;;;;;;;;;;;;;;15.59;100.00;100440.03;10461883;28;19924;-68
2023/07/27 06:19:30;;;;;;;;;;;;;;;15.68;100.00;100433.94;10462780;28;19925;-68
2023/07/27 06:24:32;;;;;;;;;;;;;;;15.85;100.00;100429.06;10462733;28;19924;-68
2023/07/27 06:29:34;;;;;;;;;;;;;;;15.75;100.00;100429.00;10462268;28;19924;-68
2023/07/27 06:34:37;;;;;;;;;;;;;;;15.81;100.00;100423.22;10462247;28;19925;-68
2023/07/27 06:39:39;;;;;;;;;;;;;;;16.25;100.00;100415.91;10444449;28;19931;-68
2023/07/27 06:44:42;;;;;;;;;;;;;;;16.23;100.00;100407.28;10461615;28;19924;-68
2023/07/27 06:49:44;;;;;;;;;;;;;;;16.29;100.00;100404.09;10461526;28;20015;-68
2023/07/27 06:54:46;;;;;;;;;;;;;;;16.28;100.00;100401.59;10461507;28;19929;-69
2023/07/27 06:59:48;;;;;;;;;;;;;;;16.41;100.00;100404.84;10461238;28;20311;-68
2023/07/27 07:04:51;;;;;;;;;;;;;;;16.33;100.00;100389.66;10459805;28;20384;-68
2023/07/27 07:09:53;;;;;;;;;;;;;;;16.59;100.00;100401.53;10460832;28;20283;-69
2023/07/27 07:14:56;;;;;;;;;;;;;;;16.57;100.00;100398.19;10460590;28;19925;-69
2023/07/27 07:19:58;;;;;;;;;;;;;;;16.60;100.00;100395.28;10460360;28;19925;-69
2023/07/27 07:25:00;;;;;;;;;;;;;;;16.97;100.00;100386.72;10460276;28;20290;-68
2023/07/27 07:30:04;;;;;;;;;;;;;;;16.83;100.00;100395.88;10459962;28;19940;-69
2023/07/27 07:35:06;;;;;;;;;;;;;;;16.98;100.00;100383.91;10459903;28;19924;-68
2023/07/27 07:40:10;;;;;;;;;;;;;;;17.09;100.00;100367.88;10474897;28;19936;-69
2023/07/27 07:45:12;;;;;;;;;;;;;;;17.22;100.00;100367.59;10458395;28;19931;-68
2023/07/27 07:50:15;;;;;;;;;;;;;;;17.08;100.00;100358.31;10459167;28;19924;-68
2023/07/27 07:55:17;;;;;;;;;;;;;;;17.29;100.00;100359.94;10459064;28;19932;-68
2023/07/27 08:00:19;;;;;;;;;;;;;;;17.47;100.00;100346.81;10459074;28;19931;-69
2023/07/27 08:05:21;;;;;;;;;;;;;;;17.51;100.00;100350.00;10458562;28;19924;-68
2023/07/27 08:10:24;;;;;;;;;;;;;;;17.60;100.00;100341.19;10458304;28;20269;-68
2023/07/27 08:15:26;;;;;;;;;;;;;;;17.53;100.00;100348.88;10458387;28;19924;-68
2023/07/27 08:20:29;;;;;;;;;;;;;;;17.52;100.00;100351.69;10458134;28;19925;-68
2023/07/27 08:25:33;;;;;;;;;;;;;;;17.56;100.00;100330.06;10458110;28;20011;-68
2023/07/27 08:30:36;;;;;;;;;;;;;;;17.77;100.00;100331.63;10456544;28;19925;-68
2023/07/27 08:35:38;;;;;;;;;;;;;;;18.19;100.00;100328.53;10457876;28;19932;-68
2023/07/27 08:40:40;;;;;;;;;;;;;;;18.16;100.00;100310.28;10457455;28;19951;-68
2023/07/27 08:45:43;;;;;;;;;;;;;;;18.03;100.00;100313.28;10457118;28;19956;-68
2023/07/27 08:50:47;;;;;;;;;;;;;;;18.03;100.00;100305.34;10455850;28;19925;-68
2023/07/27 08:55:49;;;;;;;;;;;;;;;18.30;100.00;100301.00;10455939;28;19924;-68
2023/07/27 09:00:51;;;;;;;;;;;;;;;18.20;100.00;100301.06;10456973;28;19951;-68
2023/07/27 09:05:58;;;;;;;;;;;;;;;18.25;100.00;100301.44;10456768;28;19932;-68
2023/07/27 09:11:04;;;;;;;;;;;;;;;18.35;100.00;100311.97;10455631;28;20275;-69
2023/07/27 09:16:06;;;;;;;;;;;;;;;18.76;100.00;100301.72;10456561;28;19925;-69
2023/07/27 09:21:09;;;;;;;;;;;;;;;18.54;100.00;100300.38;10456665;28;19925;-69
2023/07/27 09:26:11;;;;;;;;;;;;;;;18.45;100.00;100312.72;10455477;28;19935;-69
2023/07/27 09:31:14;;;;;;;;;;;;;;;18.07;100.00;100309.38;10454948;28;19932;-68
2023/07/27 09:36:16;;;;;;;;;;;;;;;18.48;100.00;100315.09;10456454;28;19925;-69
2023/07/27 09:41:18;;;;;;;;;;;;;;;18.52;100.00;100312.97;10455880;28;19924;-68
2023/07/27 09:46:21;;;;;;;;;;;;;;;18.48;100.00;100311.59;10456311;28;19931;-69
2023/07/27 09:51:24;;;;;;;;;;;;;;;18.28;100.00;100306.44;10456015;28;19925;-68
2023/07/27 09:56:27;;;;;;;;;;;;;;;18.34;100.00;100307.66;10454520;28;20287;-68
2023/07/27 10:01:29;;;;;;;;;;;;;;;18.73;100.00;100296.75;10454649;28;19925;-68
2023/07/27 10:06:31;;;;;;;;;;;;;;;18.94;100.00;100296.44;10458331;28;20035;-69
2023/07/27 10:11:53;;;;;;;;;;;;;;;18.83;100.00;100296.66;10463305;28;19971;-68
2023/07/27 10:16:56;;;;;;;;;;;;;;;18.88;100.00;100305.03;10462959;28;20023;-68
2023/07/27 10:22:05;;;;;;;;;;;;;;;18.40;100.00;100309.69;10461638;28;20257;-69
2023/07/27 10:27:07;;;;;;;;;;;;;;;18.73;100.00;100292.28;10462606;28;19948;-69
2023/07/27 10:32:14;;;;;;;;;;;;;;;19.12;100.00;100302.53;10462262;28;19931;-69
2023/07/27 10:37:16;;;;;;;;;;;;;;;19.04;100.00;100302.47;10462306;28;19925;-69
2023/07/27 10:42:25;;;;;;;;;;;;;;;18.69;100.00;100309.50;10461859;28;19959;-69
2023/07/27 10:47:32;;;;;;;;;;;;;;;18.88;100.00;100302.38;10461892;28;19928;-68
2023/07/27 10:52:36;;;;;;;;;;;;;;;18.76;100.00;100301.72;10460391;28;19925;-68
2023/07/27 10:57:39;;;;;;;;;;;;;;;18.94;100.00;100299.09;10460320;28;19979;-68
2023/07/27 11:02:43;;;;;;;;;;;;;;;19.11;100.00;100289.41;10460005;28;20022;-68
2023/07/27 11:07:46;;;;;;;;;;;;;;;19.18;100.00;100300.25;10459804;28;19932;-68
2023/07/27 11:12:49;;;;;;;;;;;;;;;19.07;100.00;100296.03;10460723;28;20291;-68
2023/07/27 11:17:55;;;;;;;;;;;;;;;18.97;100.00;100297.97;10458190;28;19935;-67
2023/07/27 11:22:58;;;;;;;;;;;;;;;18.76;100.00;100299.06;10459510;28;19932;-68
2023/07/27 11:28:00;;;;;;;;;;;;;;;19.22;100.00;100291.00;10459125;28;19971;-68
2023/07/27 11:33:05;;;;;;;;;;;;;;;19.49;100.00;100290.81;10459845;28;19932;-68
2023/07/27 11:38:08;;;;;;;;;;;;;;;19.10;100.00;100285.13;10459969;28;20013;-68
2023/07/27 11:43:10;;;;;;;;;;;;;;;19.30;100.00;100285.75;10459333;28;20283;-68
2023/07/27 11:48:12;;;;;;;;;;;;;;;19.05;100.00;100282.09;10458337;28;19958;-68
2023/07/27 11:53:14;;;;;;;;;;;;;;;19.27;100.00;100283.41;10459077;28;19925;-68
2023/07/27 11:58:30;;;;;;;;;;;;;;;19.27;100.00;100283.41;10472611;28;19924;-68
2023/07/27 12:03:33;;;;;;;;;;;;;;;19.10;100.00;100280.63;10458779;28;19931;-68
2023/07/27 12:08:37;;;;;;;;;;;;;;;19.06;100.00;100287.25;10457532;28;20443;-68
2023/07/27 12:13:43;;;;;;;;;;;;;;;19.38;100.00;100280.44;10441285;28;20303;-68
2023/07/27 12:18:48;;;;;;;;;;;;;;;19.52;100.00;100294.13;10457144;28;20342;-68
2023/07/27 12:23:52;;;;;;;;;;;;;;;19.27;100.00;100294.00;10458006;28;20411;-68
2023/07/27 12:28:57;;;;;;;;;;;;;;;19.54;100.00;100289.50;10457428;28;19960;-69
2023/07/27 12:34:19;;;;;;;;;;;;;;;19.66;100.00;100281.09;10457702;28;19925;-69
2023/07/27 12:39:25;;;;;;;;;;;;;;;19.99;100.00;100280.41;10457782;28;19924;-68
2023/07/27 12:44:28;;;;;;;;;;;;;;;20.04;100.00;100272.78;10457160;28;19924;-69
2023/07/27 12:49:30;;;;;;;;;;;;;;;20.09;100.00;100272.28;10457311;28;19978;-69
2023/07/27 12:54:32;;;;;;;;;;;;;;;20.13;100.00;100268.31;10457196;28;19925;-69
2023/07/27 12:59:35;;;;;;;;;;;;;;;19.90;100.00;100279.53;10472564;28;19925;-69
2023/07/27 13:04:39;;;;;;;;;;;;;;;19.92;100.00;100271.41;10457128;28;20012;-69
2023/07/27 13:09:42;;;;;;;;;;;;;;;20.35;100.00;100262.34;10456980;28;19970;-70
2023/07/27 13:14:44;;;;;;;;;;;;;;;20.11;100.00;100267.66;10456598;28;19952;-70
2023/07/27 13:19:46;;;;;;;;;;;;;;;20.19;100.00;100262.31;10456684;28;19925;-69
2023/07/27 13:24:49;;;;;;;;;;;;;;;20.08;100.00;100271.47;10456469;28;20384;-69
2023/07/27 13:29:51;;;;;;;;;;;;;;;20.06;100.00;100276.09;10456567;28;19931;-69
2023/07/27 13:34:53;;;;;;;;;;;;;;;20.26;100.00;100274.00;10455085;28;20347;-70
2023/07/27 13:39:56;;;;;;;;;;;;;;;20.18;100.00;100279.28;10456437;28;20276;-70
2023/07/27 13:44:58;;;;;;;;;;;;;;;19.93;100.00;100286.38;10463958;28;20299;-70
2023/07/27 13:50:00;;;;;;;;;;;;;;;19.95;100.00;100281.72;10463901;28;19924;-69
2023/07/27 13:55:06;;;;;;;;;;;;;;;20.23;100.00;100285.75;10479928;28;20257;-70
2023/07/27 14:00:08;;;;;;;;;;;;;;;20.16;100.00;100287.41;10463823;28;19925;-69
2023/07/27 14:05:13;;;;;;;;;;;;;;;20.06;100.00;100297.38;10463803;28;19925;-70
2023/07/27 14:10:15;;;;;;;;;;;;;;;20.15;100.00;100284.91;10462098;28;19925;-69
2023/07/27 14:15:18;;;;;;;;;;;;;;;19.90;100.00;100289.34;10463052;28;19925;-69
2023/07/27 14:20:20;;;;;;;;;;;;;;;19.68;100.00;100305.66;10462954;28;19931;-68
2023/07/27 14:25:23;;;;;;;;;;;;;;;20.13;100.00;100303.69;10462714;28;19932;-68
2023/07/27 14:30:25;;;;;;;;;;;;;;;20.18;100.00;100285.44;10462602;28;19960;-69
2023/07/27 14:35:27;;;;;;;;;;;;;;;20.06;100.00;100307.16;10461173;28;19931;-69
2023/07/27 14:40:29;;;;;;;;;;;;;;;20.20;100.00;100295.91;10460974;28;20279;-68
2023/07/27 14:45:35;;;;;;;;;;;;;;;20.30;100.00;100299.22;10461774;28;19931;-68
2023/07/27 14:50:38;;;;;;;;;;;;;;;20.13;100.00;100295.72;10461574;28;20045;-68
2023/07/27 14:55:42;;;;;;;;;;;;;;;19.74;100.00;100309.50;10469535;22;20111;-65
2023/07/27 15:00:45;;;;;;;;;;;;;;;19.77;100.00;100306.56;10420782;28;19931;-65
2023/07/27 15:05:53;;;;;;;;;;;;;;;19.63;100.00;100317.75;10420446;28;20283;-66
2023/07/27 15:10:55;;;;;;;;;;;;;;;19.66;100.00;100302.31;10419619;28;19995;-66
2023/07/27 15:16:00;;;;;;;;;;;;;;;19.81;100.00;100313.22;10420081;28;19925;-66
2023/07/27 15:21:02;;;;;;;;;;;;;;;19.63;100.00;100309.78;10419466;28;19929;-66
2023/07/27 15:26:05;;;;;;;;;;;;;;;19.48;100.00;100318.34;10419146;28;20418;-65
2023/07/27 15:31:08;;;;;;;;;;;;;;;19.48;100.00;100323.66;10401499;28;19932;-66
2023/07/27 15:36:10;;;;;;;;;;;;;;;19.39;100.00;100316.63;10418750;28;19972;-65
2023/07/27 15:41:12;;;;;;;;;;;;;;;19.41;100.00;100322.59;10418694;28;20060;-65
2023/07/27 15:46:15;;;;;;;;;;;;;;;19.11;100.00;100322.09;10418420;28;19931;-65
2023/07/27 15:51:17;;;;;;;;;;;;;;;19.06;100.00;100336.81;10418186;28;19926;-65
2023/07/27 15:56:22;;;;;;;;;;;;;;;19.35;100.00;100331.22;10400677;28;19925;-65
2023/07/27 16:01:24;;;;;;;;;;;;;;;19.52;100.00;100340.09;10400194;28;19925;-65
2023/07/27 16:06:26;;;;;;;;;;;;;;;19.29;100.00;100323.88;10416900;28;20372;-65
2023/07/27 16:11:29;;;;;;;;;;;;;;;19.27;100.00;100320.53;10399794;28;19963;-65
2023/07/27 16:16:31;;;;;;;;;;;;;;;19.43;100.00;100327.75;10417369;28;19925;-65
2023/07/27 16:21:33;;;;;;;;;;;;;;;19.35;100.00;100323.25;10417047;28;19983;-65
2023/07/27 16:26:36;;;;;;;;;;;;;;;19.40;100.00;100328.94;10416799;28;20376;-65
2023/07/27 16:31:40;;;;;;;;;;;;;;;19.15;100.00;100319.97;10415924;28;20305;-64
2023/07/27 16:36:42;;;;;;;;;;;;;;;19.15;100.00;100319.97;10416536;28;19932;-66
2023/07/27 16:41:44;;;;;;;;;;;;;;;19.36;100.00;100326.72;10416395;28;19925;-66
2023/07/27 16:46:47;;;;;;;;;;;;;;;19.21;100.00;100324.63;10416083;28;20296;-66
2023/07/27 16:51:50;;;;;;;;;;;;;;;18.98;100.00;100326.13;10415907;28;19926;-65
2023/07/27 16:56:52;;;;;;;;;;;;;;;19.06;100.00;100316.44;10415831;28;19936;-65
2023/07/27 17:01:54;;;;;;;;;;;;;;;18.92;100.00;100332.91;10415597;28;19925;-65
2023/07/27 17:06:57;;;;;;;;;;;;;;;18.78;100.00;100338.69;10415593;28;20390;-65
2023/07/27 17:11:59;;;;;;;;;;;;;;;18.86;100.00;100333.50;10415488;28;19932;-65
2023/07/27 17:17:01;;;;;;;;;;;;;;;18.93;100.00;100326.63;10421334;28;19932;-65
2023/07/27 17:22:04;;;;;;;;;;;;;;;18.94;100.00;100330.91;10424030;28;20012;-65
2023/07/27 17:27:06;;;;;;;;;;;;;;;18.99;100.00;100343.72;10406301;28;19931;-64
2023/07/27 17:32:09;;;;;;;;;;;;;;;18.75;100.00;100342.50;10423527;28;20408;-65
2023/07/27 17:37:11;;;;;;;;;;;;;;;18.78;100.00;100346.66;10423301;28;20368;-66
2023/07/27 17:42:13;;;;;;;;;;;;;;;18.83;100.00;100345.25;10405622;28;20421;-64
2023/07/27 17:47:16;;;;;;;;;;;;;;;18.84;100.00;100351.38;10422912;28;20384;-65
2023/07/27 17:52:18;;;;;;;;;;;;;;;18.60;100.00;100342.19;10422611;28;19925;-65
2023/07/27 17:57:20;;;;;;;;;;;;;;;18.61;100.00;100349.19;10422316;28;19932;-66
2023/07/27 18:02:23;;;;;;;;;;;;;;;18.65;100.00;100349.72;10422399;28;19947;-65
2023/07/27 18:07:25;;;;;;;;;;;;;;;18.90;100.00;100345.50;10422346;28;19967;-65
2023/07/27 18:12:27;;;;;;;;;;;;;;;18.68;100.00;100344.09;10421904;28;19925;-65
2023/07/27 18:17:30;;;;;;;;;;;;;;;18.56;100.00;100346.16;10404297;28;20403;-65
2023/07/27 18:22:35;;;;;;;;;;;;;;;18.69;100.00;100345.75;10421569;28;19948;-65
2023/07/27 18:27:37;;;;;;;;;;;;;;;18.52;100.00;100340.28;10403228;28;20020;-65
2023/07/27 18:32:39;;;;;;;;;;;;;;;18.66;100.00;100336.31;10421340;28;19925;-65
2023/07/27 18:37:42;;;;;;;;;;;;;;;18.55;100.00;100350.59;10421161;28;19957;-65
2023/07/27 18:42:45;;;;;;;;;;;;;;;18.48;100.00;100351.38;10421063;28;20019;-65
2023/07/27 18:47:47;;;;;;;;;;;;;;;18.42;100.00;100359.91;10420699;28;20020;-66
2023/07/27 18:52:49;;;;;;;;;;;;;;;18.46;100.00;100353.31;10420399;28;19925;-66
2023/07/27 18:57:52;;;;;;;;;;;;;;;18.37;100.00;100355.06;10420314;28;19925;-64
2023/07/27 19:02:54;;;;;;;;;;;;;;;18.16;100.00;100368.56;10420139;28;19931;-66
2023/07/27 19:07:56;;;;;;;;;;;;;;;18.35;100.00;100368.44;10420105;28;19929;-65
2023/07/27 19:12:58;;;;;;;;;;;;;;;18.33;100.00;100378.38;10419687;28;19929;-65
2023/07/27 19:18:01;;;;;;;;;;;;;;;18.35;100.00;100372.91;10419764;28;19933;-65
2023/07/27 19:23:03;;;;;;;;;;;;;;;18.44;100.00;100369.41;10419396;28;19925;-65
2023/07/27 19:28:07;;;;;;;;;;;;;;;18.29;100.00;100371.72;10419214;28;20467;-65
2023/07/27 19:33:10;;;;;;;;;;;;;;;18.10;100.00;100393.81;10418771;28;19932;-66
2023/07/27 19:38:12;;;;;;;;;;;;;;;18.19;100.00;100398.25;10417675;28;19925;-65
2023/07/27 19:43:15;;;;;;;;;;;;;;;18.30;100.00;100396.38;10418523;28;19932;-65
2023/07/27 19:48:18;;;;;;;;;;;;;;;18.16;100.00;100393.25;10418254;28;19925;-66
2023/07/27 19:53:20;;;;;;;;;;;;;;;18.18;100.00;100391.28;10418230;28;19925;-66
2023/07/27 19:58:23;;;;;;;;;;;;;;;18.23;100.00;100405.91;10417699;28;19932;-64
2023/07/27 20:03:25;;;;;;;;;;;;;;;18.09;100.00;100405.41;10417700;28;20304;-64
2023/07/27 20:08:27;;;;;;;;;;;;;;;18.11;100.00;100400.81;10417739;28;19925;-64
2023/07/27 20:13:45;;;;;;;;;;;;;;;18.08;100.00;100409.03;10401985;28;19929;-66
2023/07/27 20:18:48;;;;;;;;;;;;;;;18.23;100.00;100404.09;10417103;28;20283;-66
2023/07/27 20:23:50;;;;;;;;;;;;;;;18.09;100.00;100412.50;10399422;28;19932;-65
2023/07/27 20:28:53;;;;;;;;;;;;;;;18.10;100.00;100400.94;10416984;28;19925;-65
2023/07/27 20:33:55;;;;;;;;;;;;;;;18.06;100.00;100408.34;10416523;28;19929;-65
2023/07/27 20:38:58;;;;;;;;;;;;;;;18.13;100.00;100412.06;10416414;28;19925;-65
2023/07/27 20:44:00;;;;;;;;;;;;;;;18.12;100.00;100409.56;10416236;28;20368;-65
2023/07/27 20:49:02;;;;;;;;;;;;;;;18.13;100.00;100395.34;10415818;28;20284;-64
2023/07/27 20:54:04;;;;;;;;;;;;;;;18.18;100.00;100395.75;10415936;28;19936;-66
2023/07/27 20:59:07;;;;;;;;;;;;;;;18.23;100.00;100395.31;10415731;28;19931;-66
2023/07/27 21:04:09;;;;;;;;;;;;;;;18.10;100.00;100399.13;10415686;28;19932;-66
2023/07/27 21:09:11;;;;;;;;;;;;;;;18.13;100.00;100398.00;10415718;28;19925;-65
2023/07/27 21:14:13;;;;;;;;;;;;;;;18.15;100.00;100396.88;10415440;28;19925;-65
2023/07/27 21:19:16;;;;;;;;;;;;;;;18.18;100.00;100401.88;10415375;28;19929;-66
2023/07/27 21:24:18;;;;;;;;;;;;;;;18.06;100.00;100407.53;10415440;28;20044;-66
2023/07/27 21:29:20;;;;;;;;;;;;;;;18.11;100.00;100399.97;10415163;28;19925;-66
2023/07/27 21:34:27;;;;;;;;;;;;;;;18.12;100.00;100386.59;10397628;28;20016;-65
2023/07/27 21:39:29;;;;;;;;;;;;;;;17.96;100.00;100392.50;10414949;28;20012;-65
2023/07/27 21:44:31;;;;;;;;;;;;;;;18.07;100.00;100391.50;10415100;28;19925;-65
2023/07/27 21:49:34;;;;;;;;;;;;;;;18.24;100.00;100391.66;10414972;28;19948;-66
2023/07/27 21:54:36;;;;;;;;;;;;;;;18.13;100.00;100398.00;10414841;28;19929;-66
2023/07/27 21:59:38;;;;;;;;;;;;;;;18.06;100.00;100413.66;10414588;28;19932;-66
2023/07/27 22:04:40;;;;;;;;;;;;;;;18.17;100.00;100421.41;10420778;28;19925;-66
2023/07/27 22:09:43;;;;;;;;;;;;;;;18.22;100.00;100420.13;10422323;28;20063;-66
2023/07/27 22:14:45;;;;;;;;;;;;;;;18.35;100.00;100412.69;10404447;28;20044;-66
2023/07/27 22:19:47;;;;;;;;;;;;;;;18.14;100.00;100420.84;10421709;28;19925;-66
2023/07/27 22:24:50;;;;;;;;;;;;;;;17.99;100.00;100413.41;10404044;28;19925;-66
2023/07/27 22:29:52;;;;;;;;;;;;;;;18.17;100.00;100409.97;10421532;28;19925;-66
2023/07/27 22:34:54;;;;;;;;;;;;;;;18.28;100.00;100420.38;10421133;28;19932;-66
2023/07/27 22:39:56;;;;;;;;;;;;;;;18.37;100.00;100416.88;10420958;28;19936;-66
2023/07/27 22:44:59;;;;;;;;;;;;;;;18.14;100.00;100410.25;10420790;28;20376;-66
2023/07/27 22:50:01;;;;;;;;;;;;;;;18.33;100.00;100410.16;10403038;28;20435;-66
2023/07/27 22:55:03;;;;;;;;;;;;;;;18.15;100.00;100398.69;10420662;28;19925;-66
2023/07/27 23:00:06;;;;;;;;;;;;;;;18.00;100.00;100416.88;10420207;28;19925;-66
2023/07/27 23:05:08;;;;;;;;;;;;;;;18.06;100.00;100416.31;10402502;28;19925;-66
2023/07/27 23:10:12;;;;;;;;;;;;;;;18.00;100.00;100404.50;10420022;28;20003;-65
2023/07/27 23:15:14;;;;;;;;;;;;;;;17.99;100.00;100410.75;10419333;28;19929;-66
2023/07/27 23:20:16;;;;;;;;;;;;;;;18.24;100.00;100410.22;10419533;28;19936;-66
2023/07/27 23:25:19;;;;;;;;;;;;;;;17.92;100.00;100414.13;10419346;28;19932;-66
2023/07/27 23:30:21;;;;;;;;;;;;;;;18.01;100.00;100407.97;10401708;28;19925;-66
2023/07/27 23:35:23;;;;;;;;;;;;;;;18.20;100.00;100407.03;10418911;28;19925;-66
2023/07/27 23:40:26;;;;;;;;;;;;;;;17.97;100.00;100399.47;10401094;28;20035;-66
2023/07/27 23:45:28;;;;;;;;;;;;;;;17.94;100.00;100397.13;10400861;28;20287;-67
2023/07/27 23:50:30;;;;;;;;;;;;;;;18.13;100.00;100395.34;10418337;28;19931;-66
2023/07/27 23:55:32;;;;;;;;;;;;;;;18.01;100.00;100405.31;10418149;28;19935;-66
